createdAt,value
2022-09-25T00:02:16.901Z,8.60
2022-09-25T00:04:46.148Z,7.50
2022-09-25T00:07:17.314Z,10.65
2022-09-25T00:09:48.768Z,8.80
2022-09-25T00:12:18.331Z,7.25
2022-09-25T00:14:50.533Z,7.65
2022-09-25T00:17:19.418Z,5.28
2022-09-25T00:19:52.623Z,9.50
2022-09-25T00:22:24.840Z,8.80
2022-09-25T00:24:53.341Z,8.68
2022-09-25T00:27:22.150Z,11.20
2022-09-25T00:29:50.792Z,8.73
2022-09-25T00:32:19.187Z,13.10
2022-09-25T00:34:47.830Z,10.32
2022-09-25T00:37:16.729Z,11.77
2022-09-25T00:39:46.879Z,7.65
2022-09-25T00:42:20.510Z,11.23
2022-09-25T00:44:58.364Z,11.05
2022-09-25T00:47:35.860Z,15.88
2022-09-25T00:50:13.055Z,11.68
2022-09-25T00:52:42.646Z,12.48
2022-09-25T00:55:13.945Z,12.10
2022-09-25T00:57:47.211Z,10.15
2022-09-25T01:00:17.699Z,10.73
2022-09-25T01:02:54.154Z,9.88
2022-09-25T01:05:29.875Z,12.00
2022-09-25T01:07:59.437Z,12.68
2022-09-25T01:10:30.784Z,11.70
2022-09-25T01:13:01.808Z,13.32
2022-09-25T01:15:39.244Z,10.48
2022-09-25T01:18:21.768Z,12.40
2022-09-25T01:21:23.151Z,13.20
2022-09-25T01:24:14.115Z,12.65
2022-09-25T01:27:08.197Z,14.75
2022-09-25T01:29:44.097Z,12.32
2022-09-25T01:32:20.500Z,12.77
2022-09-25T01:34:56.612Z,12.15
2022-09-25T01:37:34.954Z,9.82
2022-09-25T01:40:10.108Z,11.18
2022-09-25T01:42:44.478Z,17.73
2022-09-25T01:45:19.164Z,11.43
2022-09-25T01:47:51.049Z,16.30
2022-09-25T01:50:26.774Z,12.60
2022-09-25T01:53:01.686Z,13.00
2022-09-25T01:55:36.352Z,16.40
2022-09-25T01:58:11.848Z,16.38
2022-09-25T02:00:46.549Z,15.35
2022-09-25T02:03:21.799Z,11.18
2022-09-25T02:05:56.201Z,10.60
2022-09-25T02:08:31.614Z,12.07
2022-09-25T02:11:04.036Z,11.77
2022-09-25T02:13:37.348Z,11.32
2022-09-25T02:16:14.235Z,11.73
2022-09-25T02:19:00.645Z,10.95
2022-09-25T02:21:38.145Z,13.73
2022-09-25T02:24:16.609Z,14.18
2022-09-25T02:26:45.313Z,14.70
2022-09-25T02:29:15.596Z,12.48
2022-09-25T02:31:49.831Z,15.43
2022-09-25T02:34:19.890Z,9.20
2022-09-25T02:36:48.762Z,12.60
2022-09-25T02:39:20.485Z,9.23
2022-09-25T02:42:06.651Z,17.83
2022-09-25T02:44:47.097Z,15.45
2022-09-25T02:47:29.057Z,11.00
2022-09-25T02:50:07.495Z,8.85
2022-09-25T02:52:41.068Z,12.43
2022-09-25T02:55:18.076Z,10.48
2022-09-25T02:57:53.198Z,8.60
2022-09-25T03:00:23.932Z,10.15
2022-09-25T03:02:59.931Z,9.50
2022-09-25T03:05:29.435Z,9.90
2022-09-25T03:08:21.409Z,10.48
2022-09-25T03:10:51.254Z,12.07
2022-09-25T03:13:22.729Z,10.65
2022-09-25T03:15:55.996Z,9.63
2022-09-25T03:18:26.736Z,9.60
2022-09-25T03:20:55.041Z,13.35
2022-09-25T03:23:23.753Z,9.57
2022-09-25T03:25:55.696Z,13.73
2022-09-25T03:28:24.980Z,15.02
2022-09-25T03:31:04.181Z,8.00
2022-09-25T03:33:38.951Z,11.43
2022-09-25T03:36:13.440Z,8.70
2022-09-25T03:38:43.085Z,10.82
2022-09-25T03:41:13.888Z,13.45
2022-09-25T03:43:44.996Z,14.18
2022-09-25T03:46:15.728Z,10.35
2022-09-25T03:48:46.759Z,9.20
2022-09-25T03:51:18.981Z,12.07
2022-09-25T03:53:48.215Z,11.82
2022-09-25T03:56:20.453Z,16.50
2022-09-25T03:58:50.799Z,10.45
2022-09-25T04:01:22.178Z,8.63
2022-09-25T04:03:52.519Z,8.07
2022-09-25T04:06:24.541Z,11.43
2022-09-25T04:08:55.440Z,8.70
2022-09-25T04:11:26.215Z,11.75
2022-09-25T04:13:55.733Z,11.35
2022-09-25T04:16:24.482Z,9.88
2022-09-25T04:18:54.225Z,11.45
2022-09-25T04:21:22.740Z,11.55
2022-09-25T04:24:06.248Z,7.75
2022-09-25T04:26:36.664Z,8.82
2022-09-25T04:29:06.883Z,15.75
2022-09-25T04:31:36.745Z,10.43
2022-09-25T04:34:05.675Z,13.57
2022-09-25T04:36:34.205Z,9.02
2022-09-25T04:39:03.294Z,12.10
2022-09-25T04:41:31.682Z,9.55
2022-09-25T04:44:00.543Z,13.27
2022-09-25T04:46:28.870Z,13.40
2022-09-25T04:48:58.428Z,8.27
2022-09-25T04:51:44.564Z,8.02
2022-09-25T04:54:14.655Z,10.07
2022-09-25T04:56:45.440Z,10.57
2022-09-25T04:59:17.768Z,11.10
2022-09-25T05:01:46.565Z,11.80
2022-09-25T05:04:16.600Z,12.82
2022-09-25T05:06:48.013Z,10.30
2022-09-25T05:09:16.434Z,12.75
2022-09-25T05:11:44.955Z,8.23
2022-09-25T05:14:13.880Z,9.30
2022-09-25T05:16:42.553Z,13.43
2022-09-25T05:19:11.069Z,12.20
2022-09-25T05:21:39.715Z,11.77
2022-09-25T05:24:10.529Z,8.82
2022-09-25T05:26:39.387Z,8.77
2022-09-25T05:29:08.520Z,7.50
2022-09-25T05:31:38.441Z,9.88
2022-09-25T05:34:08.137Z,8.98
2022-09-25T05:36:37.140Z,10.38
2022-09-25T05:39:07.224Z,12.38
2022-09-25T05:41:38.692Z,8.52
2022-09-25T05:44:10.053Z,13.25
2022-09-25T05:46:38.771Z,9.80
2022-09-25T05:49:08.584Z,8.15
2022-09-25T05:51:37.555Z,9.13
2022-09-25T05:54:06.541Z,8.80
2022-09-25T05:56:34.993Z,10.95
2022-09-25T05:59:05.136Z,10.68
2022-09-25T06:01:34.353Z,6.45
2022-09-25T06:04:05.130Z,13.75
2022-09-25T06:06:33.689Z,9.23
2022-09-25T06:09:02.258Z,9.00
2022-09-25T06:11:31.721Z,7.70
2022-09-25T06:14:00.551Z,9.40
2022-09-25T06:16:31.419Z,12.70
2022-09-25T06:19:01.110Z,15.13
2022-09-25T06:21:30.125Z,10.32
2022-09-25T06:23:58.658Z,7.55
2022-09-25T06:26:26.957Z,9.85
2022-09-25T06:28:59.782Z,13.60
2022-09-25T06:31:33.036Z,11.77
2022-09-25T06:34:01.554Z,15.38
2022-09-25T06:36:30.733Z,8.27
2022-09-25T06:38:59.025Z,9.15
2022-09-25T06:41:28.485Z,11.70
2022-09-25T06:43:56.814Z,11.30
2022-09-25T06:46:27.026Z,14.68
2022-09-25T06:48:58.616Z,9.70
2022-09-25T06:51:31.591Z,9.23
2022-09-25T06:54:01.712Z,9.57
2022-09-25T06:56:30.616Z,9.02
2022-09-25T06:58:59.054Z,10.88
2022-09-25T07:01:27.723Z,9.20
2022-09-25T07:03:56.952Z,10.13
2022-09-25T07:06:29.363Z,10.13
2022-09-25T07:08:57.761Z,5.43
2022-09-25T07:11:28.244Z,9.15
2022-09-25T07:13:57.301Z,8.85
2022-09-25T07:16:28.796Z,8.45
2022-09-25T07:19:01.609Z,6.95
2022-09-25T07:21:32.473Z,7.85
2022-09-25T07:24:01.378Z,7.05
2022-09-25T07:26:34.064Z,6.85
2022-09-25T07:29:06.804Z,9.63
2022-09-25T07:31:38.381Z,9.50
2022-09-25T07:34:10.480Z,10.55
2022-09-25T07:36:39.499Z,10.07
2022-09-25T07:39:08.197Z,6.72
2022-09-25T07:41:38.076Z,6.07
2022-09-25T07:44:27.195Z,7.80
2022-09-25T07:46:55.486Z,9.05
2022-09-25T07:49:25.279Z,11.07
2022-09-25T07:51:54.031Z,6.43
2022-09-25T07:54:22.547Z,8.30
2022-09-25T07:56:50.877Z,7.93
2022-09-25T07:59:20.371Z,8.20
2022-09-25T08:01:53.773Z,6.93
2022-09-25T08:04:23.043Z,6.93
2022-09-25T08:06:52.975Z,11.65
2022-09-25T08:09:21.344Z,8.20
2022-09-25T08:11:50.302Z,8.27
2022-09-25T08:14:24.512Z,10.60
2022-09-25T08:16:56.384Z,10.15
2022-09-25T08:19:24.701Z,6.45
2022-09-25T08:21:56.088Z,8.43
2022-09-25T08:24:26.869Z,8.55
2022-09-25T08:26:55.892Z,9.27
2022-09-25T08:29:25.036Z,10.60
2022-09-25T08:31:54.105Z,10.65
2022-09-25T08:37:14.210Z,11.45
2022-09-25T08:39:43.789Z,8.38
2022-09-25T08:42:19.816Z,9.82
2022-09-25T08:45:21.073Z,10.82
2022-09-25T08:48:16.252Z,8.07
2022-09-25T08:50:45.017Z,8.88
2022-09-25T08:53:25.175Z,7.40
2022-09-25T08:56:12.992Z,9.23
2022-09-25T08:58:44.707Z,7.15
2022-09-25T09:01:18.461Z,13.57
2022-09-25T09:03:54.716Z,10.73
2022-09-25T09:06:27.142Z,13.00
2022-09-25T09:09:10.800Z,7.32
2022-09-25T09:11:45.500Z,9.07
2022-09-25T09:14:18.750Z,7.88
2022-09-25T09:17:00.446Z,10.25
2022-09-25T09:19:31.511Z,9.57
2022-09-25T09:22:10.664Z,8.95
2022-09-25T09:24:56.822Z,10.57
2022-09-25T09:27:49.475Z,7.18
2022-09-25T09:30:21.967Z,12.18
2022-09-25T09:33:15.569Z,10.38
2022-09-25T09:36:02.457Z,11.63
2022-09-25T09:38:38.698Z,9.15
2022-09-25T09:41:22.303Z,7.55
2022-09-25T09:44:07.197Z,8.65
2022-09-25T09:46:45.841Z,9.27
2022-09-25T09:49:20.890Z,10.10
2022-09-25T09:51:57.401Z,11.38
2022-09-25T09:54:33.180Z,9.57
2022-09-25T09:57:07.284Z,8.82
2022-09-25T09:59:44.572Z,6.68
2022-09-25T10:02:28.256Z,12.90
2022-09-25T10:05:02.401Z,8.20
2022-09-25T10:07:35.632Z,11.05
2022-09-25T10:10:04.097Z,10.93
2022-09-25T10:12:39.476Z,11.73
2022-09-25T10:15:21.471Z,9.68
2022-09-25T10:17:51.025Z,7.85
2022-09-25T10:20:23.915Z,11.88
2022-09-25T10:22:56.786Z,7.30
2022-09-25T10:25:41.711Z,9.85
2022-09-25T10:28:30.616Z,14.18
2022-09-25T10:31:09.506Z,10.60
2022-09-25T10:33:59.479Z,9.73
2022-09-25T10:36:32.681Z,10.65
2022-09-25T10:39:31.101Z,8.43
2022-09-25T10:41:53.829Z,11.98
2022-09-25T10:44:33.666Z,8.13
2022-09-25T10:48:02.328Z,8.30
2022-09-25T10:50:30.881Z,9.55
2022-09-25T10:53:00.456Z,7.20
2022-09-25T10:55:31.739Z,8.15
2022-09-25T10:58:10.707Z,5.68
2022-09-25T11:00:54.628Z,8.38
2022-09-25T11:03:26.999Z,8.18
2022-09-25T11:06:02.038Z,7.88
2022-09-25T11:08:32.721Z,6.53
2022-09-25T11:11:03.559Z,8.63
2022-09-25T11:13:41.226Z,5.38
2022-09-25T11:16:11.590Z,8.30
2022-09-25T11:18:43.561Z,4.95
2022-09-25T11:21:29.013Z,5.38
2022-09-25T11:24:12.281Z,4.80
2022-09-25T11:26:48.903Z,4.88
2022-09-25T11:29:30.579Z,5.07
2022-09-25T11:32:07.155Z,5.00
2022-09-25T11:35:21.248Z,5.10
2022-09-25T11:38:03.343Z,9.23
2022-09-25T11:41:09.332Z,4.50
2022-09-25T11:43:48.318Z,6.78
2022-09-25T11:46:25.951Z,3.63
2022-09-25T11:49:15.949Z,4.32
2022-09-25T11:52:06.221Z,7.18
2022-09-25T11:54:46.606Z,6.80
2022-09-25T11:57:33.643Z,4.43
2022-09-25T12:00:10.007Z,3.78
2022-09-25T12:03:01.858Z,3.13
2022-09-25T12:05:52.255Z,4.82
2022-09-25T12:08:33.169Z,3.92
2022-09-25T12:11:14.609Z,3.50
2022-09-25T12:13:55.509Z,2.67
2022-09-25T12:16:34.951Z,3.28
2022-09-25T12:19:23.791Z,5.18
2022-09-25T12:22:01.360Z,5.22
2022-09-25T12:24:51.584Z,4.32
2022-09-25T12:27:36.175Z,1.67
2022-09-25T12:30:20.433Z,4.53
2022-09-25T12:33:23.542Z,7.38
2022-09-25T12:36:05.118Z,3.28
2022-09-25T12:38:48.124Z,3.10
2022-09-25T12:41:27.278Z,2.53
2022-09-25T12:44:12.926Z,5.70
2022-09-25T12:46:48.750Z,6.60
2022-09-25T12:49:30.295Z,2.55
2022-09-25T12:52:05.073Z,2.58
2022-09-25T12:54:38.367Z,3.95
2022-09-25T12:57:16.529Z,7.97
2022-09-25T12:59:50.548Z,4.28
2022-09-25T13:02:27.445Z,3.70
2022-09-25T13:05:07.306Z,4.82
2022-09-25T13:07:47.740Z,3.80
2022-09-25T13:10:30.313Z,2.58
2022-09-25T13:13:03.147Z,2.97
2022-09-25T13:15:35.780Z,3.83
2022-09-25T13:18:07.004Z,2.47
2022-09-25T13:20:53.957Z,2.92
2022-09-25T13:23:32.791Z,6.80
2022-09-25T13:26:11.167Z,4.03
2022-09-25T13:28:43.328Z,3.17
2022-09-25T13:31:16.663Z,2.67
2022-09-25T13:33:51.185Z,3.97
2022-09-25T13:36:44.032Z,2.28
2022-09-25T13:39:41.444Z,3.63
2022-09-25T13:42:17.075Z,7.28
2022-09-25T13:45:27.426Z,3.13
2022-09-25T13:48:02.989Z,3.40
2022-09-25T13:50:54.012Z,3.20
2022-09-25T13:53:40.538Z,3.53
2022-09-25T13:56:46.367Z,3.28
2022-09-25T13:59:39.367Z,2.33
2022-09-25T14:02:51.049Z,2.38
2022-09-25T14:05:27.353Z,3.55
2022-09-25T14:08:02.476Z,2.22
2022-09-25T14:10:33.447Z,2.60
2022-09-25T14:13:06.905Z,5.95
2022-09-25T14:15:40.413Z,5.68
2022-09-25T14:18:17.201Z,5.53
2022-09-25T14:20:50.355Z,3.22
2022-09-25T14:23:27.384Z,4.15
2022-09-25T14:26:01.138Z,2.22
2022-09-25T14:28:31.678Z,3.63
2022-09-25T14:34:32.534Z,4.28
2022-09-25T14:37:20.264Z,6.72
2022-09-25T14:39:59.105Z,6.45
2022-09-25T14:42:54.506Z,5.50
2022-09-25T14:45:41.838Z,4.15
2022-09-25T14:48:16.747Z,4.75
2022-09-25T14:50:50.740Z,4.78
2022-09-25T14:53:25.996Z,3.30
2022-09-25T14:55:56.351Z,2.55
2022-09-25T14:58:29.316Z,2.60
2022-09-25T15:01:03.724Z,2.45
2022-09-25T15:03:33.890Z,2.67
2022-09-25T15:06:04.080Z,5.00
2022-09-25T15:08:39.037Z,3.08
2022-09-25T15:11:13.492Z,3.55
2022-09-25T15:13:43.815Z,4.65
2022-09-25T15:16:34.348Z,3.83
2022-09-25T15:19:04.611Z,2.90
2022-09-25T15:21:37.775Z,2.28
2022-09-25T15:24:12.872Z,2.65
2022-09-25T15:26:50.059Z,3.17
2022-09-25T15:29:22.052Z,3.22
2022-09-25T15:31:52.318Z,1.95
2022-09-25T15:34:24.267Z,3.15
2022-09-25T15:36:55.162Z,1.98
2022-09-25T15:39:26.292Z,2.80
2022-09-25T15:41:55.591Z,3.42
2022-09-25T15:44:26.566Z,2.67
2022-09-25T15:46:57.105Z,3.05
2022-09-25T15:49:29.392Z,5.18
2022-09-25T15:52:04.186Z,3.13
2022-09-25T15:54:38.123Z,4.18
2022-09-25T15:57:13.441Z,2.83
2022-09-25T16:00:03.990Z,3.05
2022-09-25T16:03:08.525Z,3.63
2022-09-25T16:05:39.400Z,2.40
2022-09-25T16:08:30.349Z,2.35
2022-09-25T16:11:16.911Z,4.15
2022-09-25T16:13:48.980Z,6.32
2022-09-25T16:16:29.713Z,2.78
2022-09-25T16:19:01.427Z,2.75
2022-09-25T16:21:34.070Z,4.07
2022-09-25T16:24:07.700Z,3.35
2022-09-25T16:26:40.758Z,6.40
2022-09-25T16:29:23.258Z,6.15
2022-09-25T16:31:53.611Z,6.30
2022-09-25T16:34:27.145Z,4.82
2022-09-25T16:36:58.404Z,6.20
2022-09-25T16:39:31.667Z,3.97
2022-09-25T16:42:00.980Z,4.32
2022-09-25T16:44:47.755Z,3.90
2022-09-25T16:47:20.274Z,3.35
2022-09-25T16:49:50.628Z,3.63
2022-09-25T16:52:23.504Z,4.15
2022-09-25T16:54:59.156Z,2.78
2022-09-25T16:57:29.767Z,3.22
2022-09-25T16:59:59.430Z,4.90
2022-09-25T17:02:37.574Z,2.65
2022-09-25T17:05:09.494Z,3.42
2022-09-25T17:07:38.081Z,6.00
2022-09-25T17:10:13.506Z,6.07
2022-09-25T17:12:42.489Z,3.30
2022-09-25T17:15:21.912Z,8.02
2022-09-25T17:17:54.547Z,3.55
2022-09-25T17:20:24.577Z,7.15
2022-09-25T17:22:55.763Z,13.95
2022-09-25T17:25:38.705Z,2.38
2022-09-25T17:28:08.610Z,3.13
2022-09-25T17:30:38.693Z,6.78
2022-09-25T17:33:08.575Z,6.97
2022-09-25T17:35:42.066Z,3.42
2022-09-25T17:38:12.455Z,2.45
2022-09-25T17:40:44.921Z,2.65
2022-09-25T17:43:16.531Z,4.10
2022-09-25T17:45:48.505Z,3.33
2022-09-25T17:48:17.326Z,4.70
2022-09-25T17:50:46.877Z,3.20
2022-09-25T17:53:18.782Z,4.25
2022-09-25T17:55:53.777Z,4.03
2022-09-25T17:58:23.787Z,2.20
2022-09-25T18:00:53.430Z,5.90
2022-09-25T18:03:23.653Z,5.53
2022-09-25T18:05:52.293Z,4.85
2022-09-25T18:08:21.893Z,4.88
2022-09-25T18:10:55.298Z,4.75
2022-09-25T18:13:24.425Z,5.82
2022-09-25T18:15:56.650Z,6.10
2022-09-25T18:18:25.794Z,3.97
2022-09-25T18:21:11.563Z,4.80
2022-09-25T18:23:39.975Z,4.53
2022-09-25T18:26:10.758Z,7.10
2022-09-25T18:28:39.950Z,8.55
2022-09-25T18:31:09.847Z,4.55
2022-09-25T18:33:38.758Z,6.10
2022-09-25T18:36:07.567Z,6.90
2022-09-25T18:38:36.346Z,7.85
2022-09-25T18:41:05.255Z,3.97
2022-09-25T18:43:36.065Z,4.72
2022-09-25T18:46:04.985Z,4.53
2022-09-25T18:48:33.786Z,5.38
2022-09-25T18:51:02.120Z,8.02
2022-09-25T18:53:30.653Z,4.45
2022-09-25T18:55:59.246Z,6.10
2022-09-25T18:58:31.016Z,4.80
2022-09-25T19:01:01.456Z,7.25
2022-09-25T19:03:30.645Z,7.15
2022-09-25T19:06:01.670Z,6.30
2022-09-25T19:08:30.955Z,10.35
2022-09-25T19:11:00.887Z,9.55
2022-09-25T19:13:30.390Z,9.43
2022-09-25T19:16:01.455Z,8.50
2022-09-25T19:18:31.403Z,6.53
2022-09-25T19:20:59.629Z,6.72
2022-09-25T19:23:28.684Z,8.93
2022-09-25T19:25:59.430Z,8.23
2022-09-25T19:28:28.721Z,10.10
2022-09-25T19:30:59.640Z,9.90
2022-09-25T19:33:31.045Z,11.25
2022-09-25T19:36:00.389Z,8.45
2022-09-25T19:38:32.285Z,8.57
2022-09-25T19:41:01.019Z,10.27
2022-09-25T19:43:32.205Z,11.93
2022-09-25T19:46:00.697Z,8.05
2022-09-25T19:48:30.845Z,8.90
2022-09-25T19:50:59.549Z,8.63
2022-09-25T19:53:28.151Z,6.70
2022-09-25T19:55:57.185Z,11.85
2022-09-25T19:58:25.944Z,11.32
2022-09-25T20:00:57.466Z,12.23
2022-09-25T20:03:25.942Z,10.65
2022-09-25T20:05:55.866Z,12.20
2022-09-25T20:08:25.202Z,13.18
2022-09-25T20:10:54.186Z,11.38
2022-09-25T20:13:30.779Z,12.13
2022-09-25T20:16:09.007Z,16.67
2022-09-25T20:18:37.635Z,16.33
2022-09-25T20:21:26.159Z,16.40
2022-09-25T20:23:56.245Z,15.82
2022-09-25T20:26:26.422Z,12.63
2022-09-25T20:28:58.528Z,20.58
2022-09-25T20:31:30.979Z,18.15
2022-09-25T20:34:00.241Z,16.48
2022-09-25T20:36:31.433Z,17.83
2022-09-25T20:39:01.542Z,17.35
2022-09-25T20:41:30.502Z,20.27
2022-09-25T20:44:01.107Z,13.40
2022-09-25T20:46:33.236Z,15.57
2022-09-25T20:49:20.270Z,15.68
2022-09-25T20:51:50.316Z,21.27
2022-09-25T20:54:18.681Z,15.27
2022-09-25T20:56:47.350Z,17.33
2022-09-25T20:59:18.237Z,21.58
2022-09-25T21:01:46.899Z,18.20
2022-09-25T21:04:17.462Z,25.98
2022-09-25T21:06:46.980Z,18.20
2022-09-25T21:09:21.633Z,17.83
2022-09-25T21:11:50.935Z,21.40
2022-09-25T21:14:21.186Z,17.95
2022-09-25T21:16:51.324Z,18.67
2022-09-25T21:19:22.103Z,21.98
2022-09-25T21:21:51.385Z,22.65
2022-09-25T21:24:22.809Z,21.77
2022-09-25T21:26:52.301Z,18.00
2022-09-25T21:29:21.685Z,22.88
2022-09-25T21:31:51.046Z,25.02
2022-09-25T21:34:21.223Z,19.10
2022-09-25T21:36:57.216Z,23.92
2022-09-25T21:39:28.187Z,23.70
2022-09-25T21:41:57.517Z,23.00
2022-09-25T21:44:28.250Z,23.48
2022-09-25T21:46:56.882Z,18.02
2022-09-25T21:49:25.361Z,21.27
2022-09-25T21:51:53.974Z,22.67
2022-09-25T21:54:23.627Z,15.93
2022-09-25T21:56:53.389Z,18.77
2022-09-25T21:59:25.838Z,19.30
2022-09-25T22:01:56.041Z,14.57
2022-09-25T22:04:24.362Z,13.07
2022-09-25T22:06:52.757Z,20.58
2022-09-25T22:09:23.849Z,16.25
2022-09-25T22:11:53.866Z,16.40
2022-09-25T22:14:23.888Z,12.68
2022-09-25T22:16:53.906Z,15.43
2022-09-25T22:19:24.261Z,18.70
2022-09-25T22:21:55.506Z,12.40
2022-09-25T22:24:24.319Z,12.18
2022-09-25T22:26:56.406Z,7.97
2022-09-25T22:29:26.722Z,10.55
2022-09-25T22:31:55.651Z,12.80
2022-09-25T22:34:26.213Z,13.98
2022-09-25T22:36:59.509Z,12.98
2022-09-25T22:39:29.572Z,9.82
2022-09-25T22:42:00.580Z,13.45
2022-09-25T22:44:32.620Z,12.98
2022-09-25T22:47:03.904Z,10.38
2022-09-25T22:49:32.792Z,12.30
2022-09-25T22:52:02.527Z,8.32
2022-09-25T22:54:31.109Z,8.85
2022-09-25T22:57:00.970Z,10.02
2022-09-25T22:59:29.518Z,6.03
2022-09-25T23:01:57.977Z,9.98
2022-09-25T23:04:27.069Z,8.27
2022-09-25T23:06:55.727Z,5.20
2022-09-25T23:09:28.844Z,7.40
2022-09-25T23:11:58.591Z,9.52
2022-09-25T23:14:31.348Z,7.13
2022-09-25T23:17:01.958Z,6.57
2022-09-25T23:19:32.256Z,7.53
2022-09-25T23:22:01.128Z,5.53
2022-09-25T23:24:29.718Z,8.48
2022-09-25T23:26:58.772Z,7.18
2022-09-25T23:29:28.534Z,5.53
2022-09-25T23:31:56.824Z,6.47
2022-09-25T23:34:25.519Z,6.35
2022-09-25T23:36:54.123Z,5.85
2022-09-25T23:39:23.167Z,4.40
2022-09-25T23:41:51.589Z,5.82
2022-09-25T23:44:20.074Z,4.45
2022-09-25T23:46:50.375Z,5.93
2022-09-25T23:49:19.421Z,3.05
2022-09-25T23:51:48.508Z,3.08
2022-09-25T23:54:18.487Z,3.38
2022-09-25T23:56:47.981Z,2.47
2022-09-25T23:59:16.749Z,2.70
